sensor_id;sensor_type;location;lat;lon;timestamp;P1;durP1;ratioP1;P2;durP2;ratioP2
8698;SDS011;4386;51.236;6.742;2023-02-28T00:00:22;7.43;;;6.25;;
8698;SDS011;4386;51.236;6.742;2023-02-28T00:01:24;11.20;;;5.88;;
8698;SDS011;4386;51.236;6.742;2023-02-28T00:02:46;6.57;;;5.90;;
8698;SDS011;4386;51.236;6.742;2023-02-28T00:03:48;11.07;;;6.25;;
8698;SDS011;4386;51.236;6.742;2023-02-28T00:04:50;9.05;;;6.32;;
8698;SDS011;4386;51.236;6.742;2023-02-28T00:05:54;7.65;;;6.13;;
8698;SDS011;4386;51.236;6.742;2023-02-28T00:06:56;8.00;;;6.20;;
8698;SDS011;4386;51.236;6.742;2023-02-28T00:07:58;8.25;;;5.75;;
8698;SDS011;4386;51.236;6.742;2023-02-28T00:09:00;8.63;;;6.60;;
8698;SDS011;4386;51.236;6.742;2023-02-28T00:10:04;8.02;;;5.88;;
8698;SDS011;4386;51.236;6.742;2023-02-28T00:11:07;11.25;;;7.00;;
8698;SDS011;4386;51.236;6.742;2023-02-28T00:12:11;12.13;;;6.25;;
8698;SDS011;4386;51.236;6.742;2023-02-28T00:13:13;8.98;;;6.03;;
8698;SDS011;4386;51.236;6.742;2023-02-28T00:14:16;7.15;;;6.43;;
8698;SDS011;4386;51.236;6.742;2023-02-28T00:15:17;12.60;;;6.88;;
8698;SDS011;4386;51.236;6.742;2023-02-28T00:16:22;7.55;;;6.40;;
8698;SDS011;4386;51.236;6.742;2023-02-28T00:17:24;7.60;;;5.80;;
8698;SDS011;4386;51.236;6.742;2023-02-28T00:18:26;12.32;;;6.50;;
8698;SDS011;4386;51.236;6.742;2023-02-28T00:19:31;8.82;;;6.07;;
8698;SDS011;4386;51.236;6.742;2023-02-28T00:20:34;9.93;;;6.60;;
8698;SDS011;4386;51.236;6.742;2023-02-28T00:21:35;8.77;;;5.68;;
8698;SDS011;4386;51.236;6.742;2023-02-28T00:22:38;8.40;;;5.68;;
8698;SDS011;4386;51.236;6.742;2023-02-28T00:23:41;9.52;;;6.70;;
8698;SDS011;4386;51.236;6.742;2023-02-28T00:24:45;10.77;;;6.43;;
8698;SDS011;4386;51.236;6.742;2023-02-28T00:25:47;8.75;;;6.55;;
8698;SDS011;4386;51.236;6.742;2023-02-28T00:26:50;8.48;;;5.72;;
8698;SDS011;4386;51.236;6.742;2023-02-28T00:27:52;9.30;;;6.20;;
8698;SDS011;4386;51.236;6.742;2023-02-28T00:28:54;6.85;;;5.60;;
8698;SDS011;4386;51.236;6.742;2023-02-28T00:29:56;6.10;;;5.50;;
8698;SDS011;4386;51.236;6.742;2023-02-28T00:30:58;14.98;;;7.45;;
8698;SDS011;4386;51.236;6.742;2023-02-28T00:32:02;9.52;;;6.50;;
8698;SDS011;4386;51.236;6.742;2023-02-28T00:33:06;8.90;;;6.30;;
8698;SDS011;4386;51.236;6.742;2023-02-28T00:34:08;9.75;;;6.50;;
8698;SDS011;4386;51.236;6.742;2023-02-28T00:35:11;10.32;;;5.88;;
8698;SDS011;4386;51.236;6.742;2023-02-28T00:36:13;11.27;;;6.28;;
8698;SDS011;4386;51.236;6.742;2023-02-28T00:37:16;6.53;;;5.90;;
8698;SDS011;4386;51.236;6.742;2023-02-28T00:38:17;8.38;;;6.78;;
8698;SDS011;4386;51.236;6.742;2023-02-28T00:39:20;6.85;;;5.80;;
8698;SDS011;4386;51.236;6.742;2023-02-28T00:40:22;9.50;;;6.45;;
8698;SDS011;4386;51.236;6.742;2023-02-28T00:41:25;12.43;;;5.80;;
8698;SDS011;4386;51.236;6.742;2023-02-28T00:42:26;6.10;;;5.60;;
8698;SDS011;4386;51.236;6.742;2023-02-28T00:43:29;7.78;;;5.22;;
8698;SDS011;4386;51.236;6.742;2023-02-28T00:44:31;11.13;;;7.25;;
8698;SDS011;4386;51.236;6.742;2023-02-28T00:45:34;15.93;;;6.85;;
8698;SDS011;4386;51.236;6.742;2023-02-28T00:46:36;6.25;;;5.63;;
8698;SDS011;4386;51.236;6.742;2023-02-28T00:47:40;9.93;;;6.32;;
8698;SDS011;4386;51.236;6.742;2023-02-28T00:48:42;9.23;;;5.53;;
8698;SDS011;4386;51.236;6.742;2023-02-28T00:49:44;9.85;;;6.10;;
8698;SDS011;4386;51.236;6.742;2023-02-28T00:50:47;6.72;;;5.72;;
8698;SDS011;4386;51.236;6.742;2023-02-28T00:51:50;10.02;;;5.70;;
8698;SDS011;4386;51.236;6.742;2023-02-28T00:52:53;9.02;;;6.25;;
8698;SDS011;4386;51.236;6.742;2023-02-28T00:53:55;8.73;;;5.70;;
8698;SDS011;4386;51.236;6.742;2023-02-28T00:54:57;7.30;;;5.60;;
8698;SDS011;4386;51.236;6.742;2023-02-28T00:55:59;10.50;;;6.20;;
8698;SDS011;4386;51.236;6.742;2023-02-28T00:57:01;11.10;;;6.20;;
8698;SDS011;4386;51.236;6.742;2023-02-28T00:58:04;11.00;;;6.18;;
8698;SDS011;4386;51.236;6.742;2023-02-28T00:59:06;9.13;;;6.00;;
8698;SDS011;4386;51.236;6.742;2023-02-28T01:00:09;7.43;;;5.40;;
8698;SDS011;4386;51.236;6.742;2023-02-28T01:01:16;6.32;;;5.70;;
8698;SDS011;4386;51.236;6.742;2023-02-28T01:02:18;11.38;;;5.28;;
8698;SDS011;4386;51.236;6.742;2023-02-28T01:03:22;6.53;;;5.22;;
8698;SDS011;4386;51.236;6.742;2023-02-28T01:04:24;6.63;;;5.03;;
8698;SDS011;4386;51.236;6.742;2023-02-28T01:05:26;10.27;;;5.55;;
8698;SDS011;4386;51.236;6.742;2023-02-28T01:06:29;11.30;;;6.07;;
8698;SDS011;4386;51.236;6.742;2023-02-28T01:07:31;7.38;;;5.72;;
8698;SDS011;4386;51.236;6.742;2023-02-28T01:08:33;6.60;;;5.00;;
8698;SDS011;4386;51.236;6.742;2023-02-28T01:09:35;7.18;;;5.38;;
8698;SDS011;4386;51.236;6.742;2023-02-28T01:10:37;7.28;;;5.20;;
8698;SDS011;4386;51.236;6.742;2023-02-28T01:11:39;5.90;;;4.95;;
8698;SDS011;4386;51.236;6.742;2023-02-28T01:12:45;7.28;;;5.60;;
8698;SDS011;4386;51.236;6.742;2023-02-28T01:13:46;11.27;;;5.95;;
8698;SDS011;4386;51.236;6.742;2023-02-28T01:14:49;6.28;;;5.65;;
8698;SDS011;4386;51.236;6.742;2023-02-28T01:15:51;6.93;;;5.55;;
8698;SDS011;4386;51.236;6.742;2023-02-28T01:16:55;8.13;;;6.05;;
8698;SDS011;4386;51.236;6.742;2023-02-28T01:17:57;8.40;;;6.35;;
8698;SDS011;4386;51.236;6.742;2023-02-28T01:19:01;11.48;;;5.90;;
8698;SDS011;4386;51.236;6.742;2023-02-28T01:20:02;6.72;;;5.38;;
8698;SDS011;4386;51.236;6.742;2023-02-28T01:21:06;8.32;;;5.85;;
8698;SDS011;4386;51.236;6.742;2023-02-28T01:22:09;7.45;;;6.20;;
8698;SDS011;4386;51.236;6.742;2023-02-28T01:23:11;6.80;;;6.10;;
8698;SDS011;4386;51.236;6.742;2023-02-28T01:24:13;8.40;;;5.68;;
8698;SDS011;4386;51.236;6.742;2023-02-28T01:25:16;12.48;;;6.68;;
8698;SDS011;4386;51.236;6.742;2023-02-28T01:26:18;8.50;;;6.22;;
8698;SDS011;4386;51.236;6.742;2023-02-28T01:27:23;9.52;;;6.05;;
8698;SDS011;4386;51.236;6.742;2023-02-28T01:28:24;7.72;;;5.60;;
8698;SDS011;4386;51.236;6.742;2023-02-28T01:29:27;15.20;;;6.10;;
8698;SDS011;4386;51.236;6.742;2023-02-28T01:30:29;7.60;;;6.22;;
8698;SDS011;4386;51.236;6.742;2023-02-28T01:31:32;9.20;;;6.72;;
8698;SDS011;4386;51.236;6.742;2023-02-28T01:32:34;8.48;;;5.95;;
8698;SDS011;4386;51.236;6.742;2023-02-28T01:33:37;8.45;;;6.05;;
8698;SDS011;4386;51.236;6.742;2023-02-28T01:34:41;7.53;;;5.60;;
8698;SDS011;4386;51.236;6.742;2023-02-28T01:35:44;9.38;;;6.20;;
8698;SDS011;4386;51.236;6.742;2023-02-28T01:36:45;6.60;;;5.18;;
8698;SDS011;4386;51.236;6.742;2023-02-28T01:37:48;9.68;;;6.05;;
8698;SDS011;4386;51.236;6.742;2023-02-28T01:38:49;7.90;;;6.10;;
8698;SDS011;4386;51.236;6.742;2023-02-28T01:39:52;9.50;;;6.10;;
8698;SDS011;4386;51.236;6.742;2023-02-28T01:40:54;10.35;;;5.97;;
8698;SDS011;4386;51.236;6.742;2023-02-28T01:41:57;10.48;;;6.20;;
8698;SDS011;4386;51.236;6.742;2023-02-28T01:42:58;6.78;;;5.50;;
8698;SDS011;4386;51.236;6.742;2023-02-28T01:44:03;8.65;;;6.10;;
8698;SDS011;4386;51.236;6.742;2023-02-28T01:45:14;9.85;;;6.80;;
8698;SDS011;4386;51.236;6.742;2023-02-28T01:46:24;8.30;;;5.85;;
8698;SDS011;4386;51.236;6.742;2023-02-28T01:47:26;9.30;;;6.45;;
8698;SDS011;4386;51.236;6.742;2023-02-28T01:48:32;8.32;;;6.05;;
8698;SDS011;4386;51.236;6.742;2023-02-28T01:49:37;8.63;;;6.38;;
8698;SDS011;4386;51.236;6.742;2023-02-28T01:50:42;6.78;;;6.03;;
8698;SDS011;4386;51.236;6.742;2023-02-28T01:51:48;11.35;;;5.90;;
8698;SDS011;4386;51.236;6.742;2023-02-28T01:52:52;10.65;;;5.30;;
8698;SDS011;4386;51.236;6.742;2023-02-28T01:54:00;7.78;;;5.47;;
8698;SDS011;4386;51.236;6.742;2023-02-28T01:55:04;8.13;;;6.10;;
8698;SDS011;4386;51.236;6.742;2023-02-28T01:56:09;6.57;;;5.93;;
8698;SDS011;4386;51.236;6.742;2023-02-28T01:57:16;10.25;;;7.10;;
8698;SDS011;4386;51.236;6.742;2023-02-28T01:58:21;10.52;;;6.90;;
8698;SDS011;4386;51.236;6.742;2023-02-28T01:59:25;8.15;;;6.13;;
8698;SDS011;4386;51.236;6.742;2023-02-28T02:00:32;8.50;;;5.82;;
8698;SDS011;4386;51.236;6.742;2023-02-28T02:01:34;7.90;;;5.65;;
8698;SDS011;4386;51.236;6.742;2023-02-28T02:02:37;7.78;;;6.00;;
8698;SDS011;4386;51.236;6.742;2023-02-28T02:03:38;9.80;;;6.68;;
8698;SDS011;4386;51.236;6.742;2023-02-28T02:04:41;7.13;;;5.80;;
8698;SDS011;4386;51.236;6.742;2023-02-28T02:05:52;9.38;;;6.70;;
8698;SDS011;4386;51.236;6.742;2023-02-28T02:06:55;8.07;;;6.43;;
8698;SDS011;4386;51.236;6.742;2023-02-28T02:07:57;7.95;;;6.07;;
8698;SDS011;4386;51.236;6.742;2023-02-28T02:09:03;9.30;;;5.70;;
8698;SDS011;4386;51.236;6.742;2023-02-28T02:10:06;11.48;;;6.70;;
8698;SDS011;4386;51.236;6.742;2023-02-28T02:11:17;8.50;;;5.93;;
8698;SDS011;4386;51.236;6.742;2023-02-28T02:12:24;7.82;;;5.93;;
8698;SDS011;4386;51.236;6.742;2023-02-28T02:13:38;8.80;;;6.22;;
8698;SDS011;4386;51.236;6.742;2023-02-28T02:14:59;8.43;;;6.10;;
8698;SDS011;4386;51.236;6.742;2023-02-28T02:16:10;7.20;;;6.30;;
8698;SDS011;4386;51.236;6.742;2023-02-28T02:17:24;9.77;;;5.95;;
8698;SDS011;4386;51.236;6.742;2023-02-28T02:18:34;9.38;;;6.60;;
8698;SDS011;4386;51.236;6.742;2023-02-28T02:19:58;9.38;;;6.70;;
8698;SDS011;4386;51.236;6.742;2023-02-28T02:21:24;8.57;;;6.40;;
8698;SDS011;4386;51.236;6.742;2023-02-28T02:23:01;7.95;;;6.70;;
8698;SDS011;4386;51.236;6.742;2023-02-28T02:24:29;9.27;;;7.32;;
8698;SDS011;4386;51.236;6.742;2023-02-28T02:25:49;9.38;;;6.63;;
8698;SDS011;4386;51.236;6.742;2023-02-28T02:27:04;7.82;;;6.78;;
8698;SDS011;4386;51.236;6.742;2023-02-28T02:31:52;7.55;;;6.00;;
8698;SDS011;4386;51.236;6.742;2023-02-28T02:33:21;8.48;;;6.30;;
8698;SDS011;4386;51.236;6.742;2023-02-28T02:35:57;11.32;;;6.63;;
8698;SDS011;4386;51.236;6.742;2023-02-28T02:37:08;8.13;;;6.70;;
8698;SDS011;4386;51.236;6.742;2023-02-28T02:38:17;10.93;;;6.85;;
8698;SDS011;4386;51.236;6.742;2023-02-28T02:39:27;11.95;;;7.00;;
8698;SDS011;4386;51.236;6.742;2023-02-28T02:40:35;17.00;;;6.80;;
8698;SDS011;4386;51.236;6.742;2023-02-28T02:41:45;7.03;;;6.32;;
8698;SDS011;4386;51.236;6.742;2023-02-28T02:42:51;9.20;;;7.00;;
8698;SDS011;4386;51.236;6.742;2023-02-28T02:44:00;9.00;;;6.50;;
8698;SDS011;4386;51.236;6.742;2023-02-28T02:45:08;7.00;;;6.32;;
8698;SDS011;4386;51.236;6.742;2023-02-28T02:46:15;7.03;;;6.35;;
8698;SDS011;4386;51.236;6.742;2023-02-28T02:47:21;8.20;;;6.75;;
8698;SDS011;4386;51.236;6.742;2023-02-28T02:48:29;8.27;;;6.03;;
8698;SDS011;4386;51.236;6.742;2023-02-28T02:49:36;10.43;;;6.35;;
8698;SDS011;4386;51.236;6.742;2023-02-28T02:50:44;9.13;;;6.75;;
8698;SDS011;4386;51.236;6.742;2023-02-28T02:51:50;8.43;;;6.10;;
8698;SDS011;4386;51.236;6.742;2023-02-28T02:52:56;12.27;;;7.18;;
8698;SDS011;4386;51.236;6.742;2023-02-28T02:54:03;8.77;;;6.10;;
8698;SDS011;4386;51.236;6.742;2023-02-28T02:55:09;9.35;;;6.30;;
8698;SDS011;4386;51.236;6.742;2023-02-28T02:56:14;11.02;;;5.75;;
8698;SDS011;4386;51.236;6.742;2023-02-28T02:57:20;9.52;;;6.78;;
8698;SDS011;4386;51.236;6.742;2023-02-28T02:58:26;7.80;;;6.22;;
8698;SDS011;4386;51.236;6.742;2023-02-28T02:59:31;8.75;;;6.35;;
8698;SDS011;4386;51.236;6.742;2023-02-28T03:00:37;13.95;;;6.40;;
8698;SDS011;4386;51.236;6.742;2023-02-28T03:01:42;9.60;;;5.75;;
8698;SDS011;4386;51.236;6.742;2023-02-28T03:02:45;12.32;;;5.90;;
8698;SDS011;4386;51.236;6.742;2023-02-28T03:03:50;9.20;;;6.82;;
8698;SDS011;4386;51.236;6.742;2023-02-28T03:04:55;10.40;;;6.25;;
8698;SDS011;4386;51.236;6.742;2023-02-28T03:06:03;9.93;;;7.00;;
8698;SDS011;4386;51.236;6.742;2023-02-28T03:07:07;6.07;;;5.47;;
8698;SDS011;4386;51.236;6.742;2023-02-28T03:08:08;8.15;;;6.65;;
8698;SDS011;4386;51.236;6.742;2023-02-28T03:09:11;12.63;;;5.80;;
8698;SDS011;4386;51.236;6.742;2023-02-28T03:10:30;6.47;;;5.85;;
8698;SDS011;4386;51.236;6.742;2023-02-28T03:11:42;8.88;;;5.68;;
8698;SDS011;4386;51.236;6.742;2023-02-28T03:12:46;7.72;;;5.57;;
8698;SDS011;4386;51.236;6.742;2023-02-28T03:14:02;9.57;;;8.07;;
8698;SDS011;4386;51.236;6.742;2023-02-28T03:15:16;9.82;;;6.13;;
8698;SDS011;4386;51.236;6.742;2023-02-28T03:16:34;8.07;;;6.53;;
8698;SDS011;4386;51.236;6.742;2023-02-28T03:19:05;7.18;;;5.68;;
8698;SDS011;4386;51.236;6.742;2023-02-28T03:20:36;12.00;;;6.68;;
8698;SDS011;4386;51.236;6.742;2023-02-28T03:21:44;8.85;;;6.22;;
8698;SDS011;4386;51.236;6.742;2023-02-28T03:22:57;9.38;;;6.00;;
8698;SDS011;4386;51.236;6.742;2023-02-28T03:24:05;8.38;;;6.28;;
8698;SDS011;4386;51.236;6.742;2023-02-28T03:25:13;8.60;;;6.80;;
8698;SDS011;4386;51.236;6.742;2023-02-28T03:26:21;7.00;;;6.30;;
8698;SDS011;4386;51.236;6.742;2023-02-28T03:27:26;7.18;;;5.82;;
8698;SDS011;4386;51.236;6.742;2023-02-28T03:28:31;10.90;;;6.55;;
8698;SDS011;4386;51.236;6.742;2023-02-28T03:29:39;10.68;;;6.55;;
8698;SDS011;4386;51.236;6.742;2023-02-28T03:30:46;19.65;;;6.68;;
8698;SDS011;4386;51.236;6.742;2023-02-28T03:31:56;10.38;;;6.22;;
8698;SDS011;4386;51.236;6.742;2023-02-28T03:33:01;11.73;;;6.70;;
8698;SDS011;4386;51.236;6.742;2023-02-28T03:34:09;8.77;;;6.00;;
8698;SDS011;4386;51.236;6.742;2023-02-28T03:35:14;9.65;;;6.70;;
8698;SDS011;4386;51.236;6.742;2023-02-28T03:36:24;8.00;;;6.10;;
8698;SDS011;4386;51.236;6.742;2023-02-28T03:37:31;6.63;;;5.35;;
8698;SDS011;4386;51.236;6.742;2023-02-28T03:38:38;8.77;;;5.50;;
8698;SDS011;4386;51.236;6.742;2023-02-28T03:39:44;9.98;;;6.07;;
8698;SDS011;4386;51.236;6.742;2023-02-28T03:40:51;7.57;;;5.38;;
8698;SDS011;4386;51.236;6.742;2023-02-28T03:41:59;8.50;;;5.85;;
8698;SDS011;4386;51.236;6.742;2023-02-28T03:43:08;9.95;;;5.82;;
8698;SDS011;4386;51.236;6.742;2023-02-28T03:44:16;9.35;;;6.22;;
8698;SDS011;4386;51.236;6.742;2023-02-28T03:45:21;12.10;;;5.75;;
8698;SDS011;4386;51.236;6.742;2023-02-28T03:46:27;7.40;;;5.70;;
8698;SDS011;4386;51.236;6.742;2023-02-28T03:47:33;8.98;;;5.97;;
8698;SDS011;4386;51.236;6.742;2023-02-28T03:48:42;6.40;;;5.35;;
8698;SDS011;4386;51.236;6.742;2023-02-28T03:49:48;7.05;;;5.68;;
8698;SDS011;4386;51.236;6.742;2023-02-28T03:55:39;6.97;;;5.40;;
8698;SDS011;4386;51.236;6.742;2023-02-28T03:56:45;7.78;;;5.38;;
8698;SDS011;4386;51.236;6.742;2023-02-28T03:57:56;7.85;;;5.45;;
8698;SDS011;4386;51.236;6.742;2023-02-28T03:59:04;7.60;;;5.40;;
8698;SDS011;4386;51.236;6.742;2023-02-28T04:00:13;7.60;;;5.97;;
8698;SDS011;4386;51.236;6.742;2023-02-28T04:01:21;7.93;;;5.40;;
8698;SDS011;4386;51.236;6.742;2023-02-28T04:02:27;7.43;;;5.60;;
8698;SDS011;4386;51.236;6.742;2023-02-28T04:03:30;6.90;;;5.68;;
8698;SDS011;4386;51.236;6.742;2023-02-28T04:04:31;6.68;;;5.47;;
8698;SDS011;4386;51.236;6.742;2023-02-28T04:05:39;7.25;;;5.00;;
8698;SDS011;4386;51.236;6.742;2023-02-28T04:06:49;8.10;;;5.30;;
8698;SDS011;4386;51.236;6.742;2023-02-28T04:07:52;6.10;;;5.50;;
8698;SDS011;4386;51.236;6.742;2023-02-28T04:08:55;5.78;;;5.15;;
8698;SDS011;4386;51.236;6.742;2023-02-28T04:09:57;6.65;;;5.13;;
8698;SDS011;4386;51.236;6.742;2023-02-28T04:11:03;8.35;;;5.32;;
8698;SDS011;4386;51.236;6.742;2023-02-28T04:12:08;6.88;;;5.10;;
8698;SDS011;4386;51.236;6.742;2023-02-28T04:13:10;6.50;;;5.20;;
8698;SDS011;4386;51.236;6.742;2023-02-28T04:14:13;5.90;;;5.40;;
8698;SDS011;4386;51.236;6.742;2023-02-28T04:15:14;8.57;;;5.65;;
8698;SDS011;4386;51.236;6.742;2023-02-28T04:16:17;7.82;;;5.90;;
8698;SDS011;4386;51.236;6.742;2023-02-28T04:17:35;6.05;;;5.45;;
8698;SDS011;4386;51.236;6.742;2023-02-28T04:18:37;10.82;;;6.00;;
8698;SDS011;4386;51.236;6.742;2023-02-28T04:19:39;7.70;;;5.18;;
8698;SDS011;4386;51.236;6.742;2023-02-28T04:20:41;6.97;;;5.40;;
8698;SDS011;4386;51.236;6.742;2023-02-28T04:21:43;6.15;;;5.35;;
8698;SDS011;4386;51.236;6.742;2023-02-28T04:22:47;5.30;;;4.80;;
8698;SDS011;4386;51.236;6.742;2023-02-28T04:23:49;7.68;;;5.50;;
8698;SDS011;4386;51.236;6.742;2023-02-28T04:24:51;5.07;;;4.55;;
8698;SDS011;4386;51.236;6.742;2023-02-28T04:25:54;6.75;;;5.30;;
8698;SDS011;4386;51.236;6.742;2023-02-28T04:26:58;5.80;;;5.30;;
8698;SDS011;4386;51.236;6.742;2023-02-28T04:28:00;6.30;;;5.03;;
8698;SDS011;4386;51.236;6.742;2023-02-28T04:29:03;6.25;;;5.65;;
8698;SDS011;4386;51.236;6.742;2023-02-28T04:30:06;6.85;;;5.25;;
8698;SDS011;4386;51.236;6.742;2023-02-28T04:31:10;8.20;;;5.90;;
8698;SDS011;4386;51.236;6.742;2023-02-28T04:32:11;7.53;;;4.80;;
8698;SDS011;4386;51.236;6.742;2023-02-28T04:33:14;8.90;;;4.90;;
8698;SDS011;4386;51.236;6.742;2023-02-28T04:34:16;7.93;;;4.72;;
8698;SDS011;4386;51.236;6.742;2023-02-28T04:35:20;7.22;;;5.88;;
8698;SDS011;4386;51.236;6.742;2023-02-28T04:36:21;7.45;;;5.50;;
8698;SDS011;4386;51.236;6.742;2023-02-28T04:37:26;5.38;;;4.80;;
8698;SDS011;4386;51.236;6.742;2023-02-28T04:38:30;9.95;;;4.93;;
8698;SDS011;4386;51.236;6.742;2023-02-28T04:39:35;9.07;;;4.95;;
8698;SDS011;4386;51.236;6.742;2023-02-28T04:40:38;6.90;;;4.80;;
8698;SDS011;4386;51.236;6.742;2023-02-28T04:41:40;8.95;;;5.13;;
8698;SDS011;4386;51.236;6.742;2023-02-28T04:42:43;8.57;;;5.07;;
8698;SDS011;4386;51.236;6.742;2023-02-28T04:43:46;8.77;;;4.80;;
8698;SDS011;4386;51.236;6.742;2023-02-28T04:44:47;9.15;;;5.65;;
8698;SDS011;4386;51.236;6.742;2023-02-28T04:45:50;7.57;;;4.32;;
8698;SDS011;4386;51.236;6.742;2023-02-28T04:46:51;9.15;;;5.20;;
8698;SDS011;4386;51.236;6.742;2023-02-28T04:47:54;6.50;;;4.90;;
8698;SDS011;4386;51.236;6.742;2023-02-28T04:48:55;7.60;;;4.70;;
8698;SDS011;4386;51.236;6.742;2023-02-28T04:49:59;6.80;;;5.68;;
8698;SDS011;4386;51.236;6.742;2023-02-28T04:51:01;6.03;;;4.47;;
8698;SDS011;4386;51.236;6.742;2023-02-28T04:52:04;8.10;;;5.32;;
8698;SDS011;4386;51.236;6.742;2023-02-28T04:53:05;5.85;;;4.55;;
8698;SDS011;4386;51.236;6.742;2023-02-28T04:54:08;5.30;;;4.75;;
8698;SDS011;4386;51.236;6.742;2023-02-28T04:55:10;8.40;;;5.47;;
8698;SDS011;4386;51.236;6.742;2023-02-28T04:56:13;8.90;;;4.50;;
8698;SDS011;4386;51.236;6.742;2023-02-28T04:57:16;4.70;;;4.30;;
8698;SDS011;4386;51.236;6.742;2023-02-28T04:58:20;6.15;;;4.60;;
8698;SDS011;4386;51.236;6.742;2023-02-28T04:59:24;5.50;;;4.72;;
8698;SDS011;4386;51.236;6.742;2023-02-28T05:00:26;6.38;;;4.88;;
8698;SDS011;4386;51.236;6.742;2023-02-28T05:01:28;11.65;;;4.45;;
8698;SDS011;4386;51.236;6.742;2023-02-28T05:02:33;8.15;;;4.60;;
8698;SDS011;4386;51.236;6.742;2023-02-28T05:03:35;7.13;;;4.18;;
8698;SDS011;4386;51.236;6.742;2023-02-28T05:04:38;7.20;;;4.85;;
8698;SDS011;4386;51.236;6.742;2023-02-28T05:05:40;6.15;;;5.03;;
8698;SDS011;4386;51.236;6.742;2023-02-28T05:06:42;5.82;;;4.80;;
8698;SDS011;4386;51.236;6.742;2023-02-28T05:07:45;7.88;;;5.00;;
8698;SDS011;4386;51.236;6.742;2023-02-28T05:08:46;14.50;;;5.65;;
8698;SDS011;4386;51.236;6.742;2023-02-28T05:09:49;6.57;;;4.88;;
8698;SDS011;4386;51.236;6.742;2023-02-28T05:10:51;6.88;;;4.20;;
8698;SDS011;4386;51.236;6.742;2023-02-28T05:11:53;5.32;;;3.83;;
8698;SDS011;4386;51.236;6.742;2023-02-28T05:12:55;7.80;;;4.65;;
8698;SDS011;4386;51.236;6.742;2023-02-28T05:14:00;6.82;;;4.72;;
8698;SDS011;4386;51.236;6.742;2023-02-28T05:15:02;7.95;;;4.45;;
8698;SDS011;4386;51.236;6.742;2023-02-28T05:16:06;7.95;;;5.28;;
8698;SDS011;4386;51.236;6.742;2023-02-28T05:17:08;8.30;;;5.00;;
8698;SDS011;4386;51.236;6.742;2023-02-28T05:18:11;7.82;;;5.40;;
8698;SDS011;4386;51.236;6.742;2023-02-28T05:19:13;8.20;;;4.85;;
8698;SDS011;4386;51.236;6.742;2023-02-28T05:20:16;8.07;;;5.03;;
8698;SDS011;4386;51.236;6.742;2023-02-28T05:21:23;5.80;;;4.32;;
8698;SDS011;4386;51.236;6.742;2023-02-28T05:22:28;8.43;;;5.72;;
8698;SDS011;4386;51.236;6.742;2023-02-28T05:23:31;6.07;;;4.82;;
8698;SDS011;4386;51.236;6.742;2023-02-28T05:24:32;5.18;;;4.50;;
8698;SDS011;4386;51.236;6.742;2023-02-28T05:25:35;9.13;;;5.05;;
8698;SDS011;4386;51.236;6.742;2023-02-28T05:26:37;7.40;;;4.22;;
8698;SDS011;4386;51.236;6.742;2023-02-28T05:27:41;6.03;;;4.32;;
8698;SDS011;4386;51.236;6.742;2023-02-28T05:28:42;8.43;;;5.28;;
8698;SDS011;4386;51.236;6.742;2023-02-28T05:29:46;6.80;;;4.78;;
8698;SDS011;4386;51.236;6.742;2023-02-28T05:30:49;7.05;;;4.70;;
8698;SDS011;4386;51.236;6.742;2023-02-28T05:31:50;11.00;;;6.60;;
8698;SDS011;4386;51.236;6.742;2023-02-28T05:32:54;8.43;;;5.50;;
8698;SDS011;4386;51.236;6.742;2023-02-28T05:33:55;6.45;;;5.00;;
8698;SDS011;4386;51.236;6.742;2023-02-28T05:34:58;5.72;;;4.45;;
8698;SDS011;4386;51.236;6.742;2023-02-28T05:35:59;9.02;;;5.30;;
8698;SDS011;4386;51.236;6.742;2023-02-28T05:37:02;7.20;;;4.80;;
8698;SDS011;4386;51.236;6.742;2023-02-28T05:38:04;5.20;;;4.70;;
8698;SDS011;4386;51.236;6.742;2023-02-28T05:39:07;7.88;;;5.00;;
8698;SDS011;4386;51.236;6.742;2023-02-28T05:40:13;5.75;;;4.85;;
8698;SDS011;4386;51.236;6.742;2023-02-28T05:41:16;8.65;;;4.50;;
8698;SDS011;4386;51.236;6.742;2023-02-28T05:42:21;6.35;;;4.75;;
8698;SDS011;4386;51.236;6.742;2023-02-28T05:43:23;7.15;;;4.60;;
8698;SDS011;4386;51.236;6.742;2023-02-28T05:44:26;6.40;;;4.57;;
8698;SDS011;4386;51.236;6.742;2023-02-28T05:45:30;7.35;;;4.80;;
8698;SDS011;4386;51.236;6.742;2023-02-28T05:46:32;6.70;;;4.93;;
8698;SDS011;4386;51.236;6.742;2023-02-28T05:47:34;7.60;;;4.35;;
8698;SDS011;4386;51.236;6.742;2023-02-28T05:48:37;5.97;;;4.70;;
8698;SDS011;4386;51.236;6.742;2023-02-28T05:49:41;6.50;;;5.10;;
8698;SDS011;4386;51.236;6.742;2023-02-28T05:50:44;6.45;;;4.38;;
8698;SDS011;4386;51.236;6.742;2023-02-28T05:51:47;9.45;;;4.65;;
8698;SDS011;4386;51.236;6.742;2023-02-28T05:52:50;5.22;;;4.43;;
8698;SDS011;4386;51.236;6.742;2023-02-28T05:53:51;5.57;;;5.05;;
8698;SDS011;4386;51.236;6.742;2023-02-28T05:54:54;7.65;;;4.57;;
8698;SDS011;4386;51.236;6.742;2023-02-28T05:55:55;4.78;;;4.25;;
8698;SDS011;4386;51.236;6.742;2023-02-28T05:56:58;7.78;;;4.82;;
8698;SDS011;4386;51.236;6.742;2023-02-28T05:58:00;6.40;;;4.88;;
8698;SDS011;4386;51.236;6.742;2023-02-28T05:59:08;5.88;;;5.20;;
8698;SDS011;4386;51.236;6.742;2023-02-28T06:00:10;6.47;;;4.85;;
8698;SDS011;4386;51.236;6.742;2023-02-28T06:01:21;9.95;;;5.68;;
8698;SDS011;4386;51.236;6.742;2023-02-28T06:02:25;13.40;;;5.43;;
8698;SDS011;4386;51.236;6.742;2023-02-28T06:03:28;6.50;;;4.70;;
8698;SDS011;4386;51.236;6.742;2023-02-28T06:04:34;7.82;;;5.72;;
8698;SDS011;4386;51.236;6.742;2023-02-28T06:05:37;6.28;;;4.50;;
8698;SDS011;4386;51.236;6.742;2023-02-28T06:06:39;7.93;;;5.22;;
8698;SDS011;4386;51.236;6.742;2023-02-28T06:07:43;5.90;;;4.85;;
8698;SDS011;4386;51.236;6.742;2023-02-28T06:08:45;7.72;;;5.10;;
8698;SDS011;4386;51.236;6.742;2023-02-28T06:09:48;5.03;;;4.50;;
8698;SDS011;4386;51.236;6.742;2023-02-28T06:10:49;7.88;;;5.55;;
8698;SDS011;4386;51.236;6.742;2023-02-28T06:11:52;6.00;;;4.35;;
8698;SDS011;4386;51.236;6.742;2023-02-28T06:12:55;8.95;;;5.15;;
8698;SDS011;4386;51.236;6.742;2023-02-28T06:13:57;7.78;;;4.88;;
8698;SDS011;4386;51.236;6.742;2023-02-28T06:15:01;7.50;;;5.35;;
8698;SDS011;4386;51.236;6.742;2023-02-28T06:16:03;6.90;;;4.90;;
8698;SDS011;4386;51.236;6.742;2023-02-28T06:17:08;10.45;;;5.30;;
8698;SDS011;4386;51.236;6.742;2023-02-28T06:18:10;9.90;;;4.72;;
8698;SDS011;4386;51.236;6.742;2023-02-28T06:19:13;6.68;;;5.15;;
8698;SDS011;4386;51.236;6.742;2023-02-28T06:20:16;6.95;;;5.03;;
8698;SDS011;4386;51.236;6.742;2023-02-28T06:21:19;6.28;;;5.55;;
8698;SDS011;4386;51.236;6.742;2023-02-28T06:22:21;9.48;;;4.60;;
8698;SDS011;4386;51.236;6.742;2023-02-28T06:23:23;12.63;;;5.40;;
8698;SDS011;4386;51.236;6.742;2023-02-28T06:24:25;4.90;;;4.20;;
8698;SDS011;4386;51.236;6.742;2023-02-28T06:25:29;7.30;;;5.03;;
8698;SDS011;4386;51.236;6.742;2023-02-28T06:26:30;6.78;;;5.30;;
8698;SDS011;4386;51.236;6.742;2023-02-28T06:27:33;5.47;;;4.97;;
8698;SDS011;4386;51.236;6.742;2023-02-28T06:28:35;6.03;;;4.85;;
8698;SDS011;4386;51.236;6.742;2023-02-28T06:29:42;6.03;;;4.93;;
8698;SDS011;4386;51.236;6.742;2023-02-28T06:30:44;6.65;;;4.70;;
8698;SDS011;4386;51.236;6.742;2023-02-28T06:31:46;8.35;;;5.15;;
8698;SDS011;4386;51.236;6.742;2023-02-28T06:32:51;10.95;;;5.20;;
8698;SDS011;4386;51.236;6.742;2023-02-28T06:33:53;5.00;;;4.50;;
8698;SDS011;4386;51.236;6.742;2023-02-28T06:34:55;8.23;;;4.85;;
8698;SDS011;4386;51.236;6.742;2023-02-28T06:35:59;5.70;;;4.70;;
8698;SDS011;4386;51.236;6.742;2023-02-28T06:37:02;5.32;;;4.60;;
8698;SDS011;4386;51.236;6.742;2023-02-28T06:38:04;9.35;;;5.53;;
8698;SDS011;4386;51.236;6.742;2023-02-28T06:39:07;8.05;;;5.55;;
8698;SDS011;4386;51.236;6.742;2023-02-28T06:40:09;7.78;;;5.07;;
8698;SDS011;4386;51.236;6.742;2023-02-28T06:41:14;6.97;;;5.03;;
8698;SDS011;4386;51.236;6.742;2023-02-28T06:42:15;6.40;;;5.25;;
8698;SDS011;4386;51.236;6.742;2023-02-28T06:43:18;7.57;;;4.80;;
8698;SDS011;4386;51.236;6.742;2023-02-28T06:44:20;9.68;;;5.10;;
8698;SDS011;4386;51.236;6.742;2023-02-28T06:45:23;9.18;;;5.20;;
8698;SDS011;4386;51.236;6.742;2023-02-28T06:46:27;11.60;;;5.30;;
8698;SDS011;4386;51.236;6.742;2023-02-28T06:47:30;10.80;;;5.28;;
8698;SDS011;4386;51.236;6.742;2023-02-28T06:48:33;6.15;;;5.00;;
8698;SDS011;4386;51.236;6.742;2023-02-28T06:49:36;7.65;;;4.88;;
8698;SDS011;4386;51.236;6.742;2023-02-28T06:50:40;7.28;;;4.70;;
8698;SDS011;4386;51.236;6.742;2023-02-28T06:51:43;5.68;;;4.40;;